sensor_id;sensor_type;location;lat;lon;timestamp;P1;durP1;ratioP1;P2;durP2;ratioP2
53269;SDS011;39159;45.634;9.420;2023-07-22T00:02:20;19.90;;;10.98;;
53269;SDS011;39159;45.634;9.420;2023-07-22T00:04:47;15.60;;;10.57;;
53269;SDS011;39159;45.634;9.420;2023-07-22T00:07:13;14.13;;;10.25;;
53269;SDS011;39159;45.634;9.420;2023-07-22T00:09:39;14.75;;;9.90;;
53269;SDS011;39159;45.634;9.420;2023-07-22T00:12:06;19.25;;;10.93;;
53269;SDS011;39159;45.634;9.420;2023-07-22T00:14:32;13.57;;;9.75;;
53269;SDS011;39159;45.634;9.420;2023-07-22T00:16:57;15.23;;;10.32;;
53269;SDS011;39159;45.634;9.420;2023-07-22T00:19:23;18.40;;;10.82;;
53269;SDS011;39159;45.634;9.420;2023-07-22T00:21:48;16.88;;;10.55;;
53269;SDS011;39159;45.634;9.420;2023-07-22T00:24:14;13.38;;;10.13;;
53269;SDS011;39159;45.634;9.420;2023-07-22T00:26:39;16.98;;;9.90;;
53269;SDS011;39159;45.634;9.420;2023-07-22T00:29:07;14.57;;;10.13;;
53269;SDS011;39159;45.634;9.420;2023-07-22T00:31:33;14.65;;;10.13;;
53269;SDS011;39159;45.634;9.420;2023-07-22T00:33:58;14.02;;;9.15;;
53269;SDS011;39159;45.634;9.420;2023-07-22T00:36:24;13.35;;;7.75;;
53269;SDS011;39159;45.634;9.420;2023-07-22T00:38:50;13.32;;;9.05;;
53269;SDS011;39159;45.634;9.420;2023-07-22T00:41:17;14.82;;;8.13;;
53269;SDS011;39159;45.634;9.420;2023-07-22T00:43:43;11.57;;;8.75;;
53269;SDS011;39159;45.634;9.420;2023-07-22T00:46:09;20.08;;;8.52;;
53269;SDS011;39159;45.634;9.420;2023-07-22T00:48:34;13.73;;;8.15;;
53269;SDS011;39159;45.634;9.420;2023-07-22T00:51:00;13.98;;;8.63;;
53269;SDS011;39159;45.634;9.420;2023-07-22T00:53:26;12.23;;;8.70;;
53269;SDS011;39159;45.634;9.420;2023-07-22T00:55:51;17.55;;;8.98;;
53269;SDS011;39159;45.634;9.420;2023-07-22T00:58:17;18.73;;;8.90;;
53269;SDS011;39159;45.634;9.420;2023-07-22T01:00:42;14.07;;;8.65;;
53269;SDS011;39159;45.634;9.420;2023-07-22T01:03:08;11.35;;;7.55;;
53269;SDS011;39159;45.634;9.420;2023-07-22T01:05:34;15.95;;;8.60;;
53269;SDS011;39159;45.634;9.420;2023-07-22T01:08:02;15.60;;;8.07;;
53269;SDS011;39159;45.634;9.420;2023-07-22T01:10:27;13.68;;;7.75;;
53269;SDS011;39159;45.634;9.420;2023-07-22T01:12:53;13.38;;;7.10;;
53269;SDS011;39159;45.634;9.420;2023-07-22T01:15:22;11.25;;;7.05;;
53269;SDS011;39159;45.634;9.420;2023-07-22T01:17:48;9.95;;;6.38;;
53269;SDS011;39159;45.634;9.420;2023-07-22T01:20:15;13.43;;;6.28;;
53269;SDS011;39159;45.634;9.420;2023-07-22T01:22:41;14.00;;;6.22;;
53269;SDS011;39159;45.634;9.420;2023-07-22T01:25:14;11.57;;;5.57;;
53269;SDS011;39159;45.634;9.420;2023-07-22T01:27:40;10.00;;;5.95;;
53269;SDS011;39159;45.634;9.420;2023-07-22T01:30:06;8.75;;;4.97;;
53269;SDS011;39159;45.634;9.420;2023-07-22T01:32:34;7.88;;;4.60;;
53269;SDS011;39159;45.634;9.420;2023-07-22T01:35:00;8.45;;;5.18;;
53269;SDS011;39159;45.634;9.420;2023-07-22T01:37:25;12.43;;;6.03;;
53269;SDS011;39159;45.634;9.420;2023-07-22T01:39:51;9.05;;;4.75;;
53269;SDS011;39159;45.634;9.420;2023-07-22T01:42:16;8.88;;;5.38;;
53269;SDS011;39159;45.634;9.420;2023-07-22T01:44:42;10.57;;;4.63;;
53269;SDS011;39159;45.634;9.420;2023-07-22T01:47:08;10.30;;;4.60;;
53269;SDS011;39159;45.634;9.420;2023-07-22T01:49:33;8.27;;;4.35;;
53269;SDS011;39159;45.634;9.420;2023-07-22T01:51:59;11.20;;;5.15;;
53269;SDS011;39159;45.634;9.420;2023-07-22T01:54:25;7.80;;;4.80;;
53269;SDS011;39159;45.634;9.420;2023-07-22T01:56:51;7.03;;;4.68;;
53269;SDS011;39159;45.634;9.420;2023-07-22T01:59:16;7.80;;;4.43;;
53269;SDS011;39159;45.634;9.420;2023-07-22T02:01:42;7.57;;;4.32;;
53269;SDS011;39159;45.634;9.420;2023-07-22T02:04:07;7.68;;;4.68;;
53269;SDS011;39159;45.634;9.420;2023-07-22T02:06:32;8.13;;;4.70;;
53269;SDS011;39159;45.634;9.420;2023-07-22T02:08:59;7.40;;;4.57;;
53269;SDS011;39159;45.634;9.420;2023-07-22T02:11:28;12.73;;;5.20;;
53269;SDS011;39159;45.634;9.420;2023-07-22T02:13:53;7.07;;;4.55;;
53269;SDS011;39159;45.634;9.420;2023-07-22T02:16:19;8.77;;;5.20;;
53269;SDS011;39159;45.634;9.420;2023-07-22T02:18:44;6.50;;;4.40;;
53269;SDS011;39159;45.634;9.420;2023-07-22T02:21:10;10.75;;;4.47;;
53269;SDS011;39159;45.634;9.420;2023-07-22T02:23:35;5.35;;;4.30;;
53269;SDS011;39159;45.634;9.420;2023-07-22T02:26:01;10.80;;;4.35;;
53269;SDS011;39159;45.634;9.420;2023-07-22T02:28:26;5.53;;;3.97;;
53269;SDS011;39159;45.634;9.420;2023-07-22T02:30:52;6.07;;;4.25;;
53269;SDS011;39159;45.634;9.420;2023-07-22T02:33:18;8.68;;;4.65;;
53269;SDS011;39159;45.634;9.420;2023-07-22T02:35:44;8.00;;;4.90;;
53269;SDS011;39159;45.634;9.420;2023-07-22T02:38:09;6.82;;;4.38;;
53269;SDS011;39159;45.634;9.420;2023-07-22T02:40:35;9.20;;;5.10;;
53269;SDS011;39159;45.634;9.420;2023-07-22T02:43:01;6.00;;;4.45;;
53269;SDS011;39159;45.634;9.420;2023-07-22T02:45:28;7.13;;;4.82;;
53269;SDS011;39159;45.634;9.420;2023-07-22T02:47:53;9.18;;;4.95;;
53269;SDS011;39159;45.634;9.420;2023-07-22T02:50:19;6.43;;;4.57;;
53269;SDS011;39159;45.634;9.420;2023-07-22T02:52:44;7.15;;;3.97;;
53269;SDS011;39159;45.634;9.420;2023-07-22T02:55:12;8.77;;;4.40;;
53269;SDS011;39159;45.634;9.420;2023-07-22T02:57:43;7.25;;;4.38;;
53269;SDS011;39159;45.634;9.420;2023-07-22T03:00:09;7.40;;;3.90;;
53269;SDS011;39159;45.634;9.420;2023-07-22T03:02:38;8.02;;;4.22;;
53269;SDS011;39159;45.634;9.420;2023-07-22T03:05:05;6.32;;;3.88;;
53269;SDS011;39159;45.634;9.420;2023-07-22T03:07:35;8.75;;;3.67;;
53269;SDS011;39159;45.634;9.420;2023-07-22T03:10:07;7.45;;;4.28;;
53269;SDS011;39159;45.634;9.420;2023-07-22T03:12:33;7.07;;;3.88;;
53269;SDS011;39159;45.634;9.420;2023-07-22T03:15:00;4.95;;;3.53;;
53269;SDS011;39159;45.634;9.420;2023-07-22T03:17:26;6.25;;;3.70;;
53269;SDS011;39159;45.634;9.420;2023-07-22T03:19:52;9.15;;;4.13;;
53269;SDS011;39159;45.634;9.420;2023-07-22T03:22:18;9.98;;;4.05;;
53269;SDS011;39159;45.634;9.420;2023-07-22T03:24:46;6.70;;;4.35;;
53269;SDS011;39159;45.634;9.420;2023-07-22T03:27:12;5.65;;;3.95;;
53269;SDS011;39159;45.634;9.420;2023-07-22T03:29:39;8.00;;;3.85;;
53269;SDS011;39159;45.634;9.420;2023-07-22T03:32:05;6.35;;;3.50;;
53269;SDS011;39159;45.634;9.420;2023-07-22T03:34:31;8.98;;;4.15;;
53269;SDS011;39159;45.634;9.420;2023-07-22T03:36:57;8.80;;;4.05;;
53269;SDS011;39159;45.634;9.420;2023-07-22T03:39:23;5.40;;;4.00;;
53269;SDS011;39159;45.634;9.420;2023-07-22T03:41:49;6.10;;;3.50;;
53269;SDS011;39159;45.634;9.420;2023-07-22T03:44:15;8.32;;;3.75;;
53269;SDS011;39159;45.634;9.420;2023-07-22T03:46:40;5.32;;;3.28;;
53269;SDS011;39159;45.634;9.420;2023-07-22T03:49:06;10.40;;;3.60;;
53269;SDS011;39159;45.634;9.420;2023-07-22T03:51:32;5.35;;;3.47;;
53269;SDS011;39159;45.634;9.420;2023-07-22T03:53:58;4.47;;;3.05;;
53269;SDS011;39159;45.634;9.420;2023-07-22T03:56:24;5.97;;;3.08;;
53269;SDS011;39159;45.634;9.420;2023-07-22T03:58:50;8.18;;;3.15;;
53269;SDS011;39159;45.634;9.420;2023-07-22T04:01:16;6.03;;;3.20;;
53269;SDS011;39159;45.634;9.420;2023-07-22T04:03:41;4.25;;;3.08;;
53269;SDS011;39159;45.634;9.420;2023-07-22T04:06:07;4.28;;;2.50;;
53269;SDS011;39159;45.634;9.420;2023-07-22T04:08:32;5.00;;;2.65;;
53269;SDS011;39159;45.634;9.420;2023-07-22T04:10:58;4.30;;;2.78;;
53269;SDS011;39159;45.634;9.420;2023-07-22T04:13:25;4.63;;;3.00;;
53269;SDS011;39159;45.634;9.420;2023-07-22T04:15:51;4.68;;;2.60;;
53269;SDS011;39159;45.634;9.420;2023-07-22T04:18:17;5.85;;;3.00;;
53269;SDS011;39159;45.634;9.420;2023-07-22T04:20:44;6.00;;;3.17;;
53269;SDS011;39159;45.634;9.420;2023-07-22T04:23:09;6.88;;;3.00;;
53269;SDS011;39159;45.634;9.420;2023-07-22T04:25:42;4.95;;;2.90;;
53269;SDS011;39159;45.634;9.420;2023-07-22T04:28:08;6.00;;;3.20;;
53269;SDS011;39159;45.634;9.420;2023-07-22T04:30:37;5.63;;;3.42;;
53269;SDS011;39159;45.634;9.420;2023-07-22T04:33:04;4.93;;;2.80;;
53269;SDS011;39159;45.634;9.420;2023-07-22T04:35:31;13.93;;;3.35;;
53269;SDS011;39159;45.634;9.420;2023-07-22T04:38:03;5.05;;;2.92;;
53269;SDS011;39159;45.634;9.420;2023-07-22T04:40:28;4.88;;;2.97;;
53269;SDS011;39159;45.634;9.420;2023-07-22T04:42:55;5.63;;;2.83;;
53269;SDS011;39159;45.634;9.420;2023-07-22T04:45:22;4.97;;;2.90;;
53269;SDS011;39159;45.634;9.420;2023-07-22T04:47:49;4.55;;;2.83;;
53269;SDS011;39159;45.634;9.420;2023-07-22T04:50:16;11.15;;;3.58;;
53269;SDS011;39159;45.634;9.420;2023-07-22T04:52:45;5.30;;;3.05;;
53269;SDS011;39159;45.634;9.420;2023-07-22T04:55:12;3.63;;;2.85;;
53269;SDS011;39159;45.634;9.420;2023-07-22T04:57:38;5.00;;;3.05;;
53269;SDS011;39159;45.634;9.420;2023-07-22T05:00:06;6.82;;;3.40;;
53269;SDS011;39159;45.634;9.420;2023-07-22T05:02:34;6.18;;;2.75;;
53269;SDS011;39159;45.634;9.420;2023-07-22T05:04:59;3.95;;;3.28;;
53269;SDS011;39159;45.634;9.420;2023-07-22T05:07:25;4.97;;;2.88;;
53269;SDS011;39159;45.634;9.420;2023-07-22T05:09:51;6.95;;;3.30;;
53269;SDS011;39159;45.634;9.420;2023-07-22T05:12:17;8.13;;;3.33;;
53269;SDS011;39159;45.634;9.420;2023-07-22T05:14:42;9.88;;;3.55;;
53269;SDS011;39159;45.634;9.420;2023-07-22T05:17:10;4.47;;;3.38;;
53269;SDS011;39159;45.634;9.420;2023-07-22T05:19:35;6.85;;;2.97;;
53269;SDS011;39159;45.634;9.420;2023-07-22T05:22:00;7.30;;;3.22;;
53269;SDS011;39159;45.634;9.420;2023-07-22T05:24:26;5.13;;;2.88;;
53269;SDS011;39159;45.634;9.420;2023-07-22T05:26:52;8.50;;;3.00;;
53269;SDS011;39159;45.634;9.420;2023-07-22T05:29:17;3.95;;;2.60;;
53269;SDS011;39159;45.634;9.420;2023-07-22T05:31:43;7.15;;;2.97;;
53269;SDS011;39159;45.634;9.420;2023-07-22T05:34:09;3.95;;;3.30;;
53269;SDS011;39159;45.634;9.420;2023-07-22T05:36:34;6.72;;;3.20;;
53269;SDS011;39159;45.634;9.420;2023-07-22T05:39:00;5.65;;;3.30;;
53269;SDS011;39159;45.634;9.420;2023-07-22T05:41:25;7.05;;;3.63;;
53269;SDS011;39159;45.634;9.420;2023-07-22T05:43:51;8.13;;;3.50;;
53269;SDS011;39159;45.634;9.420;2023-07-22T05:46:16;7.72;;;3.90;;
53269;SDS011;39159;45.634;9.420;2023-07-22T05:48:42;16.80;;;3.33;;
53269;SDS011;39159;45.634;9.420;2023-07-22T05:51:07;8.60;;;3.72;;
53269;SDS011;39159;45.634;9.420;2023-07-22T05:53:33;9.05;;;2.72;;
53269;SDS011;39159;45.634;9.420;2023-07-22T05:55:58;5.07;;;3.25;;
53269;SDS011;39159;45.634;9.420;2023-07-22T05:58:24;8.77;;;3.15;;
53269;SDS011;39159;45.634;9.420;2023-07-22T06:00:49;7.20;;;3.67;;
53269;SDS011;39159;45.634;9.420;2023-07-22T06:03:16;6.65;;;3.42;;
53269;SDS011;39159;45.634;9.420;2023-07-22T06:05:42;4.72;;;3.30;;
53269;SDS011;39159;45.634;9.420;2023-07-22T06:08:08;4.80;;;2.90;;
53269;SDS011;39159;45.634;9.420;2023-07-22T06:10:33;7.60;;;3.50;;
53269;SDS011;39159;45.634;9.420;2023-07-22T06:12:59;7.30;;;3.05;;
53269;SDS011;39159;45.634;9.420;2023-07-22T06:15:25;7.32;;;3.20;;
53269;SDS011;39159;45.634;9.420;2023-07-22T06:17:50;5.43;;;2.75;;
53269;SDS011;39159;45.634;9.420;2023-07-22T06:20:16;4.90;;;3.25;;
53269;SDS011;39159;45.634;9.420;2023-07-22T06:22:41;14.57;;;7.90;;
53269;SDS011;39159;45.634;9.420;2023-07-22T06:25:07;18.52;;;8.32;;
53269;SDS011;39159;45.634;9.420;2023-07-22T06:27:33;16.50;;;8.77;;
53269;SDS011;39159;45.634;9.420;2023-07-22T06:30:00;16.30;;;9.13;;
53269;SDS011;39159;45.634;9.420;2023-07-22T06:32:25;18.23;;;9.98;;
53269;SDS011;39159;45.634;9.420;2023-07-22T06:34:51;21.95;;;12.40;;
53269;SDS011;39159;45.634;9.420;2023-07-22T06:37:16;28.35;;;13.80;;
53269;SDS011;39159;45.634;9.420;2023-07-22T06:39:42;24.77;;;13.40;;
53269;SDS011;39159;45.634;9.420;2023-07-22T06:42:07;23.88;;;14.05;;
53269;SDS011;39159;45.634;9.420;2023-07-22T06:44:33;20.17;;;10.95;;
53269;SDS011;39159;45.634;9.420;2023-07-22T06:46:58;17.13;;;9.40;;
53269;SDS011;39159;45.634;9.420;2023-07-22T06:49:24;13.65;;;8.27;;
53269;SDS011;39159;45.634;9.420;2023-07-22T06:51:49;15.93;;;8.43;;
53269;SDS011;39159;45.634;9.420;2023-07-22T06:54:15;13.95;;;9.25;;
53269;SDS011;39159;45.634;9.420;2023-07-22T06:56:40;10.63;;;7.20;;
53269;SDS011;39159;45.634;9.420;2023-07-22T06:59:06;17.60;;;8.00;;
53269;SDS011;39159;45.634;9.420;2023-07-22T07:01:31;13.25;;;7.65;;
53269;SDS011;39159;45.634;9.420;2023-07-22T07:03:57;14.50;;;8.15;;
53269;SDS011;39159;45.634;9.420;2023-07-22T07:06:22;13.02;;;7.50;;
53269;SDS011;39159;45.634;9.420;2023-07-22T07:08:48;11.38;;;6.50;;
53269;SDS011;39159;45.634;9.420;2023-07-22T07:11:14;11.00;;;6.82;;
53269;SDS011;39159;45.634;9.420;2023-07-22T07:13:39;11.25;;;7.07;;
53269;SDS011;39159;45.634;9.420;2023-07-22T07:16:21;9.52;;;5.82;;
53269;SDS011;39159;45.634;9.420;2023-07-22T07:18:48;12.80;;;6.65;;
53269;SDS011;39159;45.634;9.420;2023-07-22T07:21:14;8.55;;;5.72;;
53269;SDS011;39159;45.634;9.420;2023-07-22T07:23:40;12.00;;;6.00;;
53269;SDS011;39159;45.634;9.420;2023-07-22T07:26:05;8.82;;;5.85;;
53269;SDS011;39159;45.634;9.420;2023-07-22T07:28:31;13.63;;;6.05;;
53269;SDS011;39159;45.634;9.420;2023-07-22T07:30:57;9.23;;;5.05;;
53269;SDS011;39159;45.634;9.420;2023-07-22T07:33:22;9.18;;;5.30;;
53269;SDS011;39159;45.634;9.420;2023-07-22T07:35:47;11.77;;;5.75;;
53269;SDS011;39159;45.634;9.420;2023-07-22T07:38:13;9.45;;;5.45;;
53269;SDS011;39159;45.634;9.420;2023-07-22T07:40:38;10.10;;;4.80;;
53269;SDS011;39159;45.634;9.420;2023-07-22T07:43:04;6.63;;;4.68;;
53269;SDS011;39159;45.634;9.420;2023-07-22T07:45:29;9.13;;;4.57;;
53269;SDS011;39159;45.634;9.420;2023-07-22T07:47:55;12.02;;;5.78;;
53269;SDS011;39159;45.634;9.420;2023-07-22T07:50:20;6.75;;;4.82;;
53269;SDS011;39159;45.634;9.420;2023-07-22T07:52:46;7.22;;;4.90;;
53269;SDS011;39159;45.634;9.420;2023-07-22T07:55:11;11.18;;;6.40;;
53269;SDS011;39159;45.634;9.420;2023-07-22T07:57:37;8.25;;;5.15;;
53269;SDS011;39159;45.634;9.420;2023-07-22T08:00:03;9.63;;;5.43;;
53269;SDS011;39159;45.634;9.420;2023-07-22T08:02:28;8.57;;;5.20;;
53269;SDS011;39159;45.634;9.420;2023-07-22T08:04:54;7.72;;;4.53;;
53269;SDS011;39159;45.634;9.420;2023-07-22T08:07:20;8.40;;;4.72;;
53269;SDS011;39159;45.634;9.420;2023-07-22T08:09:48;7.03;;;4.30;;
53269;SDS011;39159;45.634;9.420;2023-07-22T08:12:14;8.85;;;4.97;;
53269;SDS011;39159;45.634;9.420;2023-07-22T08:14:40;7.57;;;4.25;;
53269;SDS011;39159;45.634;9.420;2023-07-22T08:17:05;7.45;;;4.65;;
53269;SDS011;39159;45.634;9.420;2023-07-22T08:19:31;7.63;;;4.63;;
53269;SDS011;39159;45.634;9.420;2023-07-22T08:21:56;7.75;;;3.92;;
53269;SDS011;39159;45.634;9.420;2023-07-22T08:24:22;5.95;;;4.50;;
53269;SDS011;39159;45.634;9.420;2023-07-22T08:26:47;7.55;;;4.72;;
53269;SDS011;39159;45.634;9.420;2023-07-22T08:29:13;11.27;;;6.40;;
53269;SDS011;39159;45.634;9.420;2023-07-22T08:31:39;13.30;;;8.13;;
53269;SDS011;39159;45.634;9.420;2023-07-22T08:34:05;11.25;;;6.97;;
53269;SDS011;39159;45.634;9.420;2023-07-22T08:36:30;16.08;;;9.20;;
53269;SDS011;39159;45.634;9.420;2023-07-22T08:38:55;11.70;;;7.97;;
53269;SDS011;39159;45.634;9.420;2023-07-22T08:41:21;14.07;;;9.32;;
53269;SDS011;39159;45.634;9.420;2023-07-22T08:43:50;15.90;;;10.57;;
53269;SDS011;39159;45.634;9.420;2023-07-22T08:46:16;12.57;;;8.55;;
53269;SDS011;39159;45.634;9.420;2023-07-22T08:48:46;14.50;;;10.07;;
53269;SDS011;39159;45.634;9.420;2023-07-22T08:51:15;14.40;;;9.50;;
53269;SDS011;39159;45.634;9.420;2023-07-22T08:53:46;12.68;;;8.73;;
53269;SDS011;39159;45.634;9.420;2023-07-22T08:56:12;14.55;;;9.48;;
53269;SDS011;39159;45.634;9.420;2023-07-22T08:58:38;13.27;;;9.00;;
53269;SDS011;39159;45.634;9.420;2023-07-22T09:01:04;12.73;;;8.60;;
53269;SDS011;39159;45.634;9.420;2023-07-22T09:03:30;21.40;;;8.07;;
53269;SDS011;39159;45.634;9.420;2023-07-22T09:05:57;11.48;;;8.35;;
53269;SDS011;39159;45.634;9.420;2023-07-22T09:08:24;11.95;;;7.80;;
53269;SDS011;39159;45.634;9.420;2023-07-22T09:10:49;14.07;;;9.35;;
53269;SDS011;39159;45.634;9.420;2023-07-22T09:13:15;10.98;;;7.88;;
53269;SDS011;39159;45.634;9.420;2023-07-22T09:15:45;15.80;;;9.55;;
53269;SDS011;39159;45.634;9.420;2023-07-22T09:18:13;12.20;;;8.40;;
53269;SDS011;39159;45.634;9.420;2023-07-22T09:20:40;15.57;;;8.63;;
53269;SDS011;39159;45.634;9.420;2023-07-22T09:23:06;11.80;;;8.23;;
53269;SDS011;39159;45.634;9.420;2023-07-22T09:25:32;11.93;;;8.90;;
53269;SDS011;39159;45.634;9.420;2023-07-22T09:27:58;12.10;;;8.32;;
53269;SDS011;39159;45.634;9.420;2023-07-22T09:30:29;13.88;;;8.68;;
53269;SDS011;39159;45.634;9.420;2023-07-22T09:32:59;11.53;;;8.40;;
53269;SDS011;39159;45.634;9.420;2023-07-22T09:35:26;13.30;;;9.05;;
53269;SDS011;39159;45.634;9.420;2023-07-22T09:37:54;14.07;;;8.10;;
53269;SDS011;39159;45.634;9.420;2023-07-22T09:40:20;13.75;;;8.20;;
53269;SDS011;39159;45.634;9.420;2023-07-22T09:42:51;10.68;;;6.95;;
53269;SDS011;39159;45.634;9.420;2023-07-22T09:45:18;12.40;;;7.90;;
53269;SDS011;39159;45.634;9.420;2023-07-22T09:47:46;11.15;;;7.20;;
53269;SDS011;39159;45.634;9.420;2023-07-22T09:50:14;13.65;;;7.88;;
53269;SDS011;39159;45.634;9.420;2023-07-22T09:52:42;9.82;;;7.28;;
53269;SDS011;39159;45.634;9.420;2023-07-22T09:55:10;9.57;;;6.65;;
53269;SDS011;39159;45.634;9.420;2023-07-22T09:57:38;9.55;;;7.03;;
53269;SDS011;39159;45.634;9.420;2023-07-22T10:00:08;10.07;;;6.38;;
53269;SDS011;39159;45.634;9.420;2023-07-22T10:02:35;9.07;;;6.10;;
53269;SDS011;39159;45.634;9.420;2023-07-22T10:05:05;11.20;;;7.10;;
53269;SDS011;39159;45.634;9.420;2023-07-22T10:07:33;10.20;;;6.18;;
53269;SDS011;39159;45.634;9.420;2023-07-22T10:10:00;9.48;;;5.38;;
53269;SDS011;39159;45.634;9.420;2023-07-22T10:12:26;12.07;;;6.82;;
53269;SDS011;39159;45.634;9.420;2023-07-22T10:14:52;8.35;;;5.38;;
53269;SDS011;39159;45.634;9.420;2023-07-22T10:17:18;10.98;;;5.90;;
53269;SDS011;39159;45.634;9.420;2023-07-22T10:19:44;7.60;;;5.47;;
53269;SDS011;39159;45.634;9.420;2023-07-22T10:22:10;9.93;;;6.03;;
53269;SDS011;39159;45.634;9.420;2023-07-22T10:24:36;9.77;;;6.07;;
53269;SDS011;39159;45.634;9.420;2023-07-22T10:27:06;9.15;;;6.57;;
53269;SDS011;39159;45.634;9.420;2023-07-22T10:29:32;12.40;;;7.18;;
53269;SDS011;39159;45.634;9.420;2023-07-22T10:31:59;12.90;;;8.80;;
53269;SDS011;39159;45.634;9.420;2023-07-22T10:34:24;10.30;;;7.03;;
53269;SDS011;39159;45.634;9.420;2023-07-22T10:36:50;11.85;;;7.47;;
53269;SDS011;39159;45.634;9.420;2023-07-22T10:39:24;13.38;;;9.05;;
53269;SDS011;39159;45.634;9.420;2023-07-22T10:42:03;10.30;;;7.47;;
53269;SDS011;39159;45.634;9.420;2023-07-22T10:44:36;9.35;;;6.78;;
53269;SDS011;39159;45.634;9.420;2023-07-22T10:47:02;12.20;;;7.15;;
53269;SDS011;39159;45.634;9.420;2023-07-22T10:49:47;8.85;;;6.32;;
53269;SDS011;39159;45.634;9.420;2023-07-22T10:52:14;11.13;;;8.40;;
53269;SDS011;39159;45.634;9.420;2023-07-22T10:54:39;9.63;;;6.05;;
53269;SDS011;39159;45.634;9.420;2023-07-22T10:59:40;10.00;;;6.38;;
53269;SDS011;39159;45.634;9.420;2023-07-22T11:02:26;10.88;;;6.68;;
53269;SDS011;39159;45.634;9.420;2023-07-22T11:04:55;8.35;;;6.15;;
53269;SDS011;39159;45.634;9.420;2023-07-22T11:07:41;12.63;;;8.00;;
53269;SDS011;39159;45.634;9.420;2023-07-22T11:10:18;9.45;;;6.05;;
53269;SDS011;39159;45.634;9.420;2023-07-22T11:12:44;12.35;;;6.88;;
53269;SDS011;39159;45.634;9.420;2023-07-22T11:15:10;12.32;;;5.28;;
53269;SDS011;39159;45.634;9.420;2023-07-22T11:17:39;7.18;;;5.30;;
53269;SDS011;39159;45.634;9.420;2023-07-22T11:20:05;6.68;;;5.38;;
53269;SDS011;39159;45.634;9.420;2023-07-22T11:22:30;5.78;;;4.03;;
53269;SDS011;39159;45.634;9.420;2023-07-22T11:24:56;9.23;;;4.18;;
53269;SDS011;39159;45.634;9.420;2023-07-22T11:27:25;9.43;;;5.63;;
53269;SDS011;39159;45.634;9.420;2023-07-22T11:29:50;6.35;;;4.10;;
53269;SDS011;39159;45.634;9.420;2023-07-22T11:32:17;5.55;;;3.97;;
53269;SDS011;39159;45.634;9.420;2023-07-22T11:34:46;9.57;;;3.97;;
53269;SDS011;39159;45.634;9.420;2023-07-22T11:37:12;5.93;;;3.67;;
53269;SDS011;39159;45.634;9.420;2023-07-22T11:39:38;5.22;;;4.18;;
53269;SDS011;39159;45.634;9.420;2023-07-22T11:42:06;6.43;;;3.58;;
53269;SDS011;39159;45.634;9.420;2023-07-22T11:44:32;5.97;;;4.00;;
53269;SDS011;39159;45.634;9.420;2023-07-22T11:54:31;6.05;;;3.33;;
53269;SDS011;39159;45.634;9.420;2023-07-22T11:57:08;5.55;;;3.25;;
53269;SDS011;39159;45.634;9.420;2023-07-22T11:59:47;5.03;;;2.97;;
53269;SDS011;39159;45.634;9.420;2023-07-22T12:02:14;10.90;;;3.90;;
53269;SDS011;39159;45.634;9.420;2023-07-22T12:04:53;5.57;;;3.80;;
53269;SDS011;39159;45.634;9.420;2023-07-22T12:07:25;6.65;;;3.72;;
53269;SDS011;39159;45.634;9.420;2023-07-22T12:09:52;5.75;;;3.55;;
53269;SDS011;39159;45.634;9.420;2023-07-22T12:12:19;8.38;;;4.32;;
53269;SDS011;39159;45.634;9.420;2023-07-22T12:14:45;6.70;;;3.90;;
53269;SDS011;39159;45.634;9.420;2023-07-22T12:17:10;10.27;;;4.40;;
53269;SDS011;39159;45.634;9.420;2023-07-22T12:19:36;7.90;;;4.20;;
53269;SDS011;39159;45.634;9.420;2023-07-22T12:22:01;8.05;;;4.32;;
53269;SDS011;39159;45.634;9.420;2023-07-22T12:24:27;7.32;;;4.63;;
53269;SDS011;39159;45.634;9.420;2023-07-22T12:26:53;6.13;;;3.72;;
53269;SDS011;39159;45.634;9.420;2023-07-22T12:29:19;7.80;;;3.90;;
53269;SDS011;39159;45.634;9.420;2023-07-22T12:31:45;11.25;;;4.88;;
53269;SDS011;39159;45.634;9.420;2023-07-22T12:34:10;7.35;;;4.28;;
53269;SDS011;39159;45.634;9.420;2023-07-22T12:36:36;8.20;;;4.43;;
53269;SDS011;39159;45.634;9.420;2023-07-22T12:39:01;8.32;;;3.60;;
53269;SDS011;39159;45.634;9.420;2023-07-22T12:41:27;6.13;;;4.07;;
53269;SDS011;39159;45.634;9.420;2023-07-22T12:43:53;7.28;;;4.00;;
53269;SDS011;39159;45.634;9.420;2023-07-22T12:46:18;7.55;;;4.55;;
53269;SDS011;39159;45.634;9.420;2023-07-22T12:48:44;8.80;;;3.97;;
53269;SDS011;39159;45.634;9.420;2023-07-22T12:51:09;8.60;;;3.97;;
53269;SDS011;39159;45.634;9.420;2023-07-22T12:53:35;9.57;;;4.53;;
53269;SDS011;39159;45.634;9.420;2023-07-22T12:56:00;6.82;;;3.70;;
53269;SDS011;39159;45.634;9.420;2023-07-22T12:58:28;8.70;;;4.15;;
53269;SDS011;39159;45.634;9.420;2023-07-22T13:00:54;6.75;;;3.70;;
53269;SDS011;39159;45.634;9.420;2023-07-22T13:03:19;5.38;;;3.47;;
53269;SDS011;39159;45.634;9.420;2023-07-22T13:05:44;8.50;;;4.32;;
53269;SDS011;39159;45.634;9.420;2023-07-22T13:08:10;5.13;;;3.42;;
53269;SDS011;39159;45.634;9.420;2023-07-22T13:10:35;5.75;;;3.85;;
53269;SDS011;39159;45.634;9.420;2023-07-22T13:13:03;6.88;;;4.40;;
53269;SDS011;39159;45.634;9.420;2023-07-22T13:15:30;8.35;;;3.95;;
53269;SDS011;39159;45.634;9.420;2023-07-22T13:17:56;5.75;;;3.67;;
53269;SDS011;39159;45.634;9.420;2023-07-22T13:20:21;5.97;;;3.80;;
53269;SDS011;39159;45.634;9.420;2023-07-22T13:22:46;5.95;;;3.58;;
53269;SDS011;39159;45.634;9.420;2023-07-22T13:25:12;5.65;;;3.70;;
53269;SDS011;39159;45.634;9.420;2023-07-22T13:27:38;4.38;;;3.53;;
53269;SDS011;39159;45.634;9.420;2023-07-22T13:30:06;8.50;;;4.10;;
53269;SDS011;39159;45.634;9.420;2023-07-22T13:32:32;5.45;;;3.65;;
53269;SDS011;39159;45.634;9.420;2023-07-22T13:34:58;6.40;;;3.53;;
53269;SDS011;39159;45.634;9.420;2023-07-22T13:37:23;5.22;;;3.58;;
53269;SDS011;39159;45.634;9.420;2023-07-22T13:39:49;6.40;;;3.97;;
53269;SDS011;39159;45.634;9.420;2023-07-22T13:42:14;4.50;;;3.30;;
53269;SDS011;39159;45.634;9.420;2023-07-22T13:44:39;5.32;;;3.67;;
53269;SDS011;39159;45.634;9.420;2023-07-22T13:47:05;7.15;;;3.97;;
53269;SDS011;39159;45.634;9.420;2023-07-22T13:49:30;8.02;;;3.80;;
53269;SDS011;39159;45.634;9.420;2023-07-22T13:51:56;5.07;;;3.30;;
53269;SDS011;39159;45.634;9.420;2023-07-22T13:54:21;5.85;;;3.33;;
53269;SDS011;39159;45.634;9.420;2023-07-22T13:56:47;9.25;;;3.47;;
53269;SDS011;39159;45.634;9.420;2023-07-22T13:59:13;5.53;;;3.80;;
53269;SDS011;39159;45.634;9.420;2023-07-22T14:01:39;6.18;;;3.78;;
53269;SDS011;39159;45.634;9.420;2023-07-22T14:04:04;5.53;;;3.85;;
53269;SDS011;39159;45.634;9.420;2023-07-22T14:06:30;6.00;;;4.38;;
53269;SDS011;39159;45.634;9.420;2023-07-22T14:08:57;5.22;;;3.45;;
53269;SDS011;39159;45.634;9.420;2023-07-22T14:11:23;5.03;;;3.67;;
53269;SDS011;39159;45.634;9.420;2023-07-22T14:13:48;5.75;;;3.75;;
53269;SDS011;39159;45.634;9.420;2023-07-22T14:16:14;6.65;;;3.75;;
53269;SDS011;39159;45.634;9.420;2023-07-22T14:18:39;5.68;;;3.28;;
53269;SDS011;39159;45.634;9.420;2023-07-22T14:21:05;7.15;;;3.97;;
53269;SDS011;39159;45.634;9.420;2023-07-22T14:23:30;8.15;;;3.95;;
53269;SDS011;39159;45.634;9.420;2023-07-22T14:25:56;5.72;;;3.30;;
53269;SDS011;39159;45.634;9.420;2023-07-22T14:28:21;5.60;;;4.00;;
53269;SDS011;39159;45.634;9.420;2023-07-22T14:30:48;5.78;;;3.72;;
53269;SDS011;39159;45.634;9.420;2023-07-22T14:33:13;5.28;;;3.22;;
53269;SDS011;39159;45.634;9.420;2023-07-22T14:35:39;7.13;;;3.75;;
53269;SDS011;39159;45.634;9.420;2023-07-22T14:38:04;6.53;;;3.78;;
53269;SDS011;39159;45.634;9.420;2023-07-22T14:40:30;4.85;;;3.40;;
53269;SDS011;39159;45.634;9.420;2023-07-22T14:42:55;4.85;;;3.58;;
53269;SDS011;39159;45.634;9.420;2023-07-22T14:45:21;6.10;;;3.47;;
53269;SDS011;39159;45.634;9.420;2023-07-22T14:47:46;5.03;;;3.80;;
53269;SDS011;39159;45.634;9.420;2023-07-22T14:50:13;5.82;;;3.58;;